Overton, Nevada Weather observations

Data are for observation ending at time listed.
 Day   Time    Ave.   Ave.  Ave.  Vector   Max.   Stn.    Total    Solar   Ave.  
  of    of     Air    Rel.  Wind   Wind    Wind   Baro.  Precip.   Rad.    Soil  
Year   Day     Temp.  Hum.  Speed  Dir.    Gust   Pres.                    Temp. 
2016   (PST)    F      %     mph   deg.    mph     mb.     in.     W/m2     F   
------------------------------------------------------------------------------
 180   16:10  103.9    14    8.3   133     17.5   970.1    0.00     416    107.7
 180   16:20  103.7    14    6.2   126     20.5   970.0    0.00     290    107.6
 180   16:30  104.6    12    9.9    99     18.3   969.9    0.00     274    107.4
 180   16:40  104.5    12    9.2    93     21.4   969.8    0.00     145    107.1
 180   16:50  104.1    12    7.6   102     16.5   969.7    0.00     210    106.8
 180   17:00  105.1    12    6.6   106     15.9   969.6    0.00     278    106.3
 180   17:10  105.4    12    6.7   100     16.6   969.6    0.00     307    106.0
 180   17:20  105.8    12    5.4   102     12.6   969.7    0.00     263    105.7
 180   17:30  105.7    12    5.6   109     13.2   969.8    0.00     181    105.5
 180   17:40  105.3    12    3.8   124      8.8   969.9    0.00     171    105.4
 180   17:50  105.2    13    4.7   140     10.9   969.9    0.00     155    105.1
 180   18:00  104.6    13    4.3   143      8.6   969.8    0.00     122    104.8
 180   18:10  103.0    14    4.0   172      7.2   969.9    0.00      27    104.5
 180   18:20  102.2    14    3.4   181      5.7   969.9    0.00      21    104.2
 180   18:30  102.5    14    3.6   192      5.3   969.9    0.00      16    103.9
 180   18:40  101.8    14    2.9   190      4.6   969.9    0.00      11    103.6
 180   18:50  101.8    14    4.1   197      6.4   970.0    0.00       9    103.3
 180   19:00  101.6    14    3.1   208      5.4   970.0    0.00       4    103.0
 180   19:10  101.0    14    3.7   221     12.0   970.0    0.00       3    102.6
 180   19:20  101.3    15    5.3   235     11.6   970.0    0.00       0    102.3
 180   19:30  100.9    15    5.7   230     12.3   969.9    0.00       0    102.0
 180   19:40  100.5    15    6.7   236     12.8   969.9    0.00       0    101.8
 180   19:50  100.2    16    5.4   237     10.4   969.8    0.00       0    101.6
 180   20:00   99.9    16    3.6   234      6.7   969.8    0.00       0    101.4
 180   20:10   99.6    16    1.8   230      3.9   969.8    0.00       0    101.2
 180   20:20   98.9    17    0.9    18      3.1   969.7    0.00       0    101.0
 180   20:30   96.5    20    4.0    50      5.6   969.6    0.00       0    100.8
 180   20:40   95.1    21    3.4    54      5.0   969.4    0.00       0    100.4
 180   20:50   94.9    20    2.5   264      4.4   969.5    0.00       0    100.1
 180   21:00   94.4    21    1.4   264      3.1   969.5    0.00       0    99.8
 180   21:10   91.3    25    3.2   358      4.7   969.6    0.00       0    99.4
 180   21:20   91.1    24    0.9    58      2.9   969.5    0.00       0    99.1
 180   21:30   91.8    24    0.9   237      2.7   969.4    0.00       0    98.7
 180   21:40   91.2    24    1.9   251      2.9   969.4    0.00       0    98.4
 180   21:50   90.7    24    0.5   292      2.0   969.4    0.00       0    98.1
 180   22:00   88.9    26    1.9   317      3.3   969.3    0.00       0    97.7
 180   22:10   88.2    26    1.5   305      3.3   969.2    0.00       0    97.4
 180   22:20   89.1    25    2.7   295      4.6   969.2    0.00       0    97.1
 180   22:30   89.3    25    1.5   263      3.1   969.0    0.00       0    96.8
 180   22:40   89.3    25    2.2   238      3.9   969.1    0.00       0    96.6
 180   22:50   90.3    24    1.0   234      3.4   969.0    0.00       0    96.4
 180   23:00   89.8    24    1.2   235      3.5   969.0    0.00       0    96.2
 180   23:10   89.8    25    2.1   293      4.0   968.9    0.00       0    96.0
 180   23:20   87.6    28    1.8     2      3.1   968.9    0.00       0    95.7
 180   23:30   86.6    29    1.3   320      2.3   968.9    0.00       0    95.5
 180   23:40   86.2    28    0.8   296      1.9   968.8    0.00       0    95.2
 180   23:50   86.1    29    0.3    94      1.9   968.8    0.00       0    94.9
 181    0:00   85.7    30    1.7    73      3.7   968.8    0.00       0    94.7
 181    0:10   84.7    31    0.5   201      1.8   968.7    0.00       0    94.4
 181    0:20   85.3    31    0.1   143      0.7   968.7    0.00       0    94.2
 181    0:30   82.4    35    1.6   327      3.8   968.6    0.00       0    93.9
 181    0:40   82.5    34    2.1   294      4.0   968.4    0.00       0    93.7
 181    0:50   84.1    30    0.6   151      2.2   968.5    0.00       0    93.4
 181    1:00   84.3    30    1.6   300      3.7   968.5    0.00       0    93.1
 181    1:10   82.8    31    1.3   284      3.0   968.6    0.00       0    92.9
 181    1:20   81.9    32    1.9   290      3.3   968.6    0.00       0    92.7
 181    1:30   82.2    32    0.6   282      2.0   968.5    0.00       0    92.4
 181    1:40   82.1    31    2.0   313      3.9   968.6    0.00       0    92.2
 181    1:50   83.0    30    1.9   277      3.1   968.6    0.00       0    92.0
 181    2:00   81.2    33    1.2   305      2.5   968.6    0.00       0    91.8
 181    2:10   79.5    37    0.6   337      1.6   968.5    0.00       0    91.6
 181    2:20   78.1    40    1.2   337      2.5   968.4    0.00       0    91.3
 181    2:30   78.3    38    0.9   293      3.4   968.4    0.00       0    91.1
 181    2:40   78.8    38    1.6     4      3.5   968.4    0.00       0    90.9
 181    2:50   78.1    40    2.6   335      5.0   968.4    0.00       0    90.7
 181    3:00   81.3    32    1.6   280      3.5   968.4    0.00       0    90.4
 181    3:10   80.7    34    1.5   295      3.8   968.5    0.00       0    90.3
 181    3:20   79.3    35    3.6   301      5.0   968.5    0.00       0    90.1
 181    3:30   80.3    33    1.5   243      3.3   968.7    0.00       0    89.9
 181    3:40   78.9    36    2.0   313      3.7   968.8    0.00       0    89.7
 181    3:50   75.9    42    3.1   325      3.9   968.8    0.00       0    89.5
 181    4:00   78.2    36    1.8   269      2.9   968.9    0.00       0    89.3
 181    4:10   79.8    33    1.1   243      2.5   968.8    0.00       0    89.2
 181    4:20   79.3    34    0.2   352      0.7   968.9    0.00       0    89.0
 181    4:30   78.1    37    0.6   331      1.6   968.9    0.00       0    88.9
 181    4:40   78.7    34    2.0   299      2.9   968.9    0.00       0    88.7
 181    4:50   79.4    34    1.3   267      3.5   969.0    0.00       0    88.7
 181    5:00   79.7    34    0.6   256      2.5   969.1    0.00       0    88.6
 181    5:10   79.8    34    0.1   227      1.0   969.2    0.00       0    88.6
 181    5:20   79.2    36    1.0   285      2.6   969.3    0.00       0    88.7
 181    5:30   78.5    37    1.3   270      3.1   969.4    0.00       0    88.8
 181    5:40   81.5    30    1.6   268      3.2   969.5    0.00       0    88.9
 181    5:50   84.1    28    1.9   292      4.1   969.8    0.00       2    89.7
 181    6:00   85.4    27    1.6   272      3.7   970.1    0.00      11    90.7
 181    6:10   87.3    25    1.6   288      4.3   970.4    0.00       1    92.0
 181    6:20   87.9    24    1.7   295      4.2   970.6    0.00       0    93.4
 181    6:30   87.5    25    2.0   322      3.1   970.8    0.00      30    94.2
 181    6:40   89.1    25    0.5   339      1.6   970.8    0.00      65    94.8
 181    6:50   89.5    25    1.6   331      2.3   971.1    0.00     159    95.5
 181    7:00   90.2    23    1.2   278      2.6   971.2    0.00     135    95.9
 181    7:10   91.9    21    1.6   315      3.9   971.3    0.00      21    96.9
 181    7:20   92.8    20    2.3   312      4.2   971.6    0.00      52    98.5
 181    7:30   94.4    19    2.2   301      4.9   971.8    0.00     293    100.3
 181    7:40   95.8    18    1.6   291      4.4   971.9    0.00     246    102.1
 181    7:50   96.1    18    2.1   289      4.7   972.1    0.00       9    103.8
 181    8:00   96.5    17    2.1   320      4.6   972.2    0.00       1    105.2
 181    8:10   97.6    16    2.4    61      4.5   972.2    0.00     111    106.3
 181    8:20   98.0    16    1.4    85      4.0   972.3    0.00     484    107.5
 181    8:30   99.0    16    1.4    96      3.3   972.4    0.00     613    108.7
 181    8:40   99.9    16    1.4    96      3.9   972.5    0.00     280    110.0
 181    8:50   98.7    17    1.5   148      3.1   972.5    0.00      27    110.8
 181    9:00   97.8    17    1.9   173      4.5   972.4    0.00      23    110.2
 181    9:10   98.2    18    2.1   142      4.2   972.1    0.00      22    109.7
 181    9:20  100.0    16    1.4    30      4.1   971.9    0.00      17    110.6
 181    9:30  101.2    15    1.8    47      3.7   971.7    0.00      28    111.7
 181    9:40  102.5    14    2.3    54      4.4   971.9    0.00      16    113.2
 181    9:50  102.1    15    1.4    65      3.0   971.9    0.00      39    114.5
 181   10:00  102.7    14    2.2    83      5.3   972.0    0.00      29    114.7
 181   10:10  102.9    14    3.0   145      6.4   971.9    0.00     156    115.4
 181   10:20  103.0    14    4.0   120      8.0   972.0    0.00      26    116.7
 181   10:30  103.5    14    4.3   110     10.1   972.1    0.00     271    117.7
 181   10:40  104.2    14    4.7   133      9.9   971.8    0.00     137    118.4
 181   10:50  105.3    13    4.5   125      8.6   971.7    0.00     158    119.0
 181   11:00  105.1    14    5.4   134      9.8   971.7    0.00       3    119.5
 181   11:10  105.6    13    4.4   111      9.5   971.7    0.00     130    119.5
 181   11:20  106.3    13    5.6   120     11.0   971.4    0.00     365    119.1
 181   11:30  105.8    13    6.1    95     11.9   971.4    0.00     740    118.2
 181   11:40  106.1    12    5.1   100     10.5   971.2    0.00     840    117.4
 181   11:50  106.6    12    4.4   102     10.8   970.9    0.00      58    116.9
 181   12:00  106.9    12    4.2    94      8.4   970.9    0.00       1    116.4
 181   12:10  108.1    12    4.1   127     10.7   970.4    0.00      29    116.5
 181   12:20  107.9    12    5.4   161     10.9   970.0    0.00      14    117.3
 181   12:30  107.9    12    3.5   161      8.4   970.3    0.00       3    117.9
 181   12:40  108.9    12    3.5   132      8.1   969.7    0.00     117    118.0
 181   12:50  108.5    12    4.4   126     12.6   969.5    0.00     508    117.6
 181   13:00  109.7    11    4.4   112     12.0   969.6    0.00     844    117.2
 181   13:10  109.7    12    3.7   104      8.0   969.2    0.00     706    117.2
 181   13:20  109.8    12    5.4    80     10.1   969.4    0.00     445    117.2
 181   13:30  110.3    11    5.1   105     11.3   969.2    0.00     324    116.7
 181   13:40  109.9    12    5.5    79     10.7   969.0    0.00     532    115.6
 181   13:50  110.0    11    4.8    87      9.6   968.9    0.00     566    114.5
 181   14:00  110.5    11    4.9    99      9.3   968.7    0.00     694    113.6
 181   14:10  111.0    11    4.9   126     11.3   970.2    0.00     404    112.7
 181   14:20  111.6    11    5.7   129     11.9   969.1    0.00     380    112.0
 181   14:30  111.6    10    6.5   146     14.2   969.1    0.00     282    111.4
 181   14:40  111.3     9    9.2   168     16.4   968.8    0.00     657    111.0
 181   14:50  111.5     9    7.8   167     15.5   968.7    0.00     657    110.6
 181   15:00  111.5     9   10.5   180     16.4   968.6    0.00     633    110.2
 181   15:10  111.2    10    9.1   168     16.3   968.6    0.00     585    109.9
 181   15:20  111.7     9    7.1   141     16.7   968.2    0.00     590    109.5
 181   15:30  111.4    10    7.2   158     13.4   968.3    0.00     565    109.2
 181   15:40  111.2     9    4.8   190     10.9   967.8    0.00     503    108.9
 181   15:50  111.7    10    4.8   103     10.4   967.8    0.00     517    108.6
 181   16:00  111.1    10    4.2   124      8.4   967.6    0.00     495    108.3

Return to Overton, Nevada graphs page.


Western Regional Climate Center,wrcc@dri.edu